sensor_id;sensor_type;location;lat;lon;timestamp;P1;durP1;ratioP1;P2;durP2;ratioP2
29838;SDS011;18669;53.356;-1.464;2023-06-01T00:01:25;7.72;;;5.45;;
29838;SDS011;18669;53.356;-1.464;2023-06-01T00:04:11;11.63;;;5.72;;
29838;SDS011;18669;53.356;-1.464;2023-06-01T00:06:57;8.77;;;5.32;;
29838;SDS011;18669;53.356;-1.464;2023-06-01T00:09:45;9.77;;;5.78;;
29838;SDS011;18669;53.356;-1.464;2023-06-01T00:12:30;9.75;;;6.25;;
29838;SDS011;18669;53.356;-1.464;2023-06-01T00:15:15;10.85;;;5.70;;
29838;SDS011;18669;53.356;-1.464;2023-06-01T00:18:01;11.43;;;6.82;;
29838;SDS011;18669;53.356;-1.464;2023-06-01T00:20:45;8.48;;;5.82;;
29838;SDS011;18669;53.356;-1.464;2023-06-01T00:23:31;8.88;;;5.57;;
29838;SDS011;18669;53.356;-1.464;2023-06-01T00:26:16;12.65;;;6.50;;
29838;SDS011;18669;53.356;-1.464;2023-06-01T00:29:01;9.63;;;6.63;;
29838;SDS011;18669;53.356;-1.464;2023-06-01T00:31:46;11.65;;;5.78;;
29838;SDS011;18669;53.356;-1.464;2023-06-01T00:34:31;11.60;;;5.65;;
29838;SDS011;18669;53.356;-1.464;2023-06-01T00:37:16;11.32;;;6.13;;
29838;SDS011;18669;53.356;-1.464;2023-06-01T00:40:01;11.00;;;5.45;;
29838;SDS011;18669;53.356;-1.464;2023-06-01T00:42:45;10.27;;;5.60;;
29838;SDS011;18669;53.356;-1.464;2023-06-01T00:45:30;9.32;;;5.35;;
29838;SDS011;18669;53.356;-1.464;2023-06-01T00:48:15;10.30;;;6.25;;
29838;SDS011;18669;53.356;-1.464;2023-06-01T00:51:01;11.68;;;5.55;;
29838;SDS011;18669;53.356;-1.464;2023-06-01T00:53:46;9.95;;;5.80;;
29838;SDS011;18669;53.356;-1.464;2023-06-01T00:56:31;12.50;;;6.05;;
29838;SDS011;18669;53.356;-1.464;2023-06-01T00:59:17;13.23;;;5.60;;
29838;SDS011;18669;53.356;-1.464;2023-06-01T01:02:02;12.25;;;5.15;;
29838;SDS011;18669;53.356;-1.464;2023-06-01T01:04:48;10.77;;;5.60;;
29838;SDS011;18669;53.356;-1.464;2023-06-01T01:07:42;8.05;;;5.50;;
29838;SDS011;18669;53.356;-1.464;2023-06-01T01:13:45;11.05;;;5.88;;
29838;SDS011;18669;53.356;-1.464;2023-06-01T01:16:35;14.90;;;5.60;;
29838;SDS011;18669;53.356;-1.464;2023-06-01T01:28:10;9.95;;;5.47;;
29838;SDS011;18669;53.356;-1.464;2023-06-01T01:31:05;14.43;;;6.43;;
29838;SDS011;18669;53.356;-1.464;2023-06-01T01:33:55;11.52;;;5.68;;
29838;SDS011;18669;53.356;-1.464;2023-06-01T01:36:41;12.47;;;6.53;;
29838;SDS011;18669;53.356;-1.464;2023-06-01T01:39:26;10.52;;;6.07;;
29838;SDS011;18669;53.356;-1.464;2023-06-01T01:42:11;13.10;;;6.93;;
29838;SDS011;18669;53.356;-1.464;2023-06-01T01:44:56;12.82;;;6.35;;
29838;SDS011;18669;53.356;-1.464;2023-06-01T01:47:43;8.70;;;5.82;;
29838;SDS011;18669;53.356;-1.464;2023-06-01T01:50:59;10.20;;;6.07;;
29838;SDS011;18669;53.356;-1.464;2023-06-01T01:53:46;11.93;;;6.05;;
29838;SDS011;18669;53.356;-1.464;2023-06-01T01:56:35;12.60;;;6.82;;
29838;SDS011;18669;53.356;-1.464;2023-06-01T01:59:21;11.35;;;6.55;;
29838;SDS011;18669;53.356;-1.464;2023-06-01T02:02:07;15.68;;;6.78;;
29838;SDS011;18669;53.356;-1.464;2023-06-01T02:04:52;11.55;;;7.22;;
29838;SDS011;18669;53.356;-1.464;2023-06-01T02:07:37;11.52;;;7.55;;
29838;SDS011;18669;53.356;-1.464;2023-06-01T02:10:21;12.32;;;6.97;;
29838;SDS011;18669;53.356;-1.464;2023-06-01T02:13:06;13.20;;;7.68;;
29838;SDS011;18669;53.356;-1.464;2023-06-01T02:15:51;10.50;;;6.70;;
29838;SDS011;18669;53.356;-1.464;2023-06-01T02:18:36;11.40;;;6.70;;
29838;SDS011;18669;53.356;-1.464;2023-06-01T02:21:23;10.90;;;6.55;;
29838;SDS011;18669;53.356;-1.464;2023-06-01T02:24:09;11.27;;;7.25;;
29838;SDS011;18669;53.356;-1.464;2023-06-01T02:26:53;17.15;;;6.40;;
29838;SDS011;18669;53.356;-1.464;2023-06-01T02:29:39;7.70;;;5.43;;
29838;SDS011;18669;53.356;-1.464;2023-06-01T02:32:24;8.90;;;5.95;;
29838;SDS011;18669;53.356;-1.464;2023-06-01T02:35:10;10.60;;;5.95;;
29838;SDS011;18669;53.356;-1.464;2023-06-01T02:37:55;8.50;;;5.72;;
29838;SDS011;18669;53.356;-1.464;2023-06-01T02:40:41;7.72;;;5.57;;
29838;SDS011;18669;53.356;-1.464;2023-06-01T02:43:26;8.10;;;5.05;;
29838;SDS011;18669;53.356;-1.464;2023-06-01T02:46:10;9.85;;;5.22;;
29838;SDS011;18669;53.356;-1.464;2023-06-01T02:48:55;12.00;;;5.47;;
29838;SDS011;18669;53.356;-1.464;2023-06-01T02:51:40;9.52;;;5.53;;
29838;SDS011;18669;53.356;-1.464;2023-06-01T02:54:25;14.05;;;5.30;;
29838;SDS011;18669;53.356;-1.464;2023-06-01T02:57:10;14.52;;;5.63;;
29838;SDS011;18669;53.356;-1.464;2023-06-01T02:59:55;11.15;;;5.88;;
29838;SDS011;18669;53.356;-1.464;2023-06-01T03:02:40;10.82;;;6.60;;
29838;SDS011;18669;53.356;-1.464;2023-06-01T03:05:25;12.80;;;6.68;;
29838;SDS011;18669;53.356;-1.464;2023-06-01T03:08:10;12.57;;;6.43;;
29838;SDS011;18669;53.356;-1.464;2023-06-01T03:10:55;10.45;;;6.75;;
29838;SDS011;18669;53.356;-1.464;2023-06-01T03:13:40;14.93;;;7.40;;
29838;SDS011;18669;53.356;-1.464;2023-06-01T03:16:24;21.00;;;7.85;;
29838;SDS011;18669;53.356;-1.464;2023-06-01T03:19:10;11.65;;;7.45;;
29838;SDS011;18669;53.356;-1.464;2023-06-01T03:21:55;12.45;;;6.97;;
29838;SDS011;18669;53.356;-1.464;2023-06-01T03:24:40;12.98;;;6.70;;
29838;SDS011;18669;53.356;-1.464;2023-06-01T03:27:25;13.80;;;6.97;;
29838;SDS011;18669;53.356;-1.464;2023-06-01T03:30:10;11.68;;;6.88;;
29838;SDS011;18669;53.356;-1.464;2023-06-01T03:32:56;9.50;;;6.20;;
29838;SDS011;18669;53.356;-1.464;2023-06-01T03:35:40;11.57;;;5.68;;
29838;SDS011;18669;53.356;-1.464;2023-06-01T03:38:25;7.93;;;5.28;;
29838;SDS011;18669;53.356;-1.464;2023-06-01T03:41:10;12.85;;;5.90;;
29838;SDS011;18669;53.356;-1.464;2023-06-01T03:43:55;13.02;;;5.78;;
29838;SDS011;18669;53.356;-1.464;2023-06-01T03:46:40;11.93;;;5.35;;
29838;SDS011;18669;53.356;-1.464;2023-06-01T03:49:25;12.15;;;5.45;;
29838;SDS011;18669;53.356;-1.464;2023-06-01T03:52:10;15.75;;;6.40;;
29838;SDS011;18669;53.356;-1.464;2023-06-01T03:54:55;10.95;;;5.75;;
29838;SDS011;18669;53.356;-1.464;2023-06-01T03:57:41;12.95;;;5.35;;
29838;SDS011;18669;53.356;-1.464;2023-06-01T04:00:26;12.27;;;6.15;;
29838;SDS011;18669;53.356;-1.464;2023-06-01T04:03:11;12.05;;;6.50;;
29838;SDS011;18669;53.356;-1.464;2023-06-01T04:05:56;16.60;;;6.57;;
29838;SDS011;18669;53.356;-1.464;2023-06-01T04:08:44;10.95;;;5.82;;
29838;SDS011;18669;53.356;-1.464;2023-06-01T04:11:39;13.13;;;6.22;;
29838;SDS011;18669;53.356;-1.464;2023-06-01T04:14:24;8.10;;;6.13;;
29838;SDS011;18669;53.356;-1.464;2023-06-01T04:17:09;13.25;;;6.43;;
29838;SDS011;18669;53.356;-1.464;2023-06-01T04:19:54;15.57;;;5.78;;
29838;SDS011;18669;53.356;-1.464;2023-06-01T04:22:39;11.68;;;6.47;;
29838;SDS011;18669;53.356;-1.464;2023-06-01T04:25:24;15.30;;;7.10;;
29838;SDS011;18669;53.356;-1.464;2023-06-01T04:28:09;10.65;;;6.70;;
29838;SDS011;18669;53.356;-1.464;2023-06-01T04:30:54;13.93;;;7.50;;
29838;SDS011;18669;53.356;-1.464;2023-06-01T04:33:39;13.55;;;7.78;;
29838;SDS011;18669;53.356;-1.464;2023-06-01T04:36:25;15.25;;;8.05;;
29838;SDS011;18669;53.356;-1.464;2023-06-01T04:39:11;15.37;;;6.60;;
29838;SDS011;18669;53.356;-1.464;2023-06-01T04:41:56;10.98;;;6.43;;
29838;SDS011;18669;53.356;-1.464;2023-06-01T04:44:41;10.57;;;6.30;;
29838;SDS011;18669;53.356;-1.464;2023-06-01T04:47:27;9.93;;;6.28;;
29838;SDS011;18669;53.356;-1.464;2023-06-01T04:50:13;14.25;;;7.20;;
29838;SDS011;18669;53.356;-1.464;2023-06-01T04:52:59;9.70;;;6.15;;
29838;SDS011;18669;53.356;-1.464;2023-06-01T04:55:45;14.75;;;6.85;;
29838;SDS011;18669;53.356;-1.464;2023-06-01T04:58:30;13.52;;;6.38;;
29838;SDS011;18669;53.356;-1.464;2023-06-01T05:01:14;11.65;;;6.60;;
29838;SDS011;18669;53.356;-1.464;2023-06-01T05:03:59;11.70;;;6.50;;
29838;SDS011;18669;53.356;-1.464;2023-06-01T05:06:44;12.15;;;6.43;;
29838;SDS011;18669;53.356;-1.464;2023-06-01T05:09:29;11.20;;;6.75;;
29838;SDS011;18669;53.356;-1.464;2023-06-01T05:12:14;11.73;;;6.00;;
29838;SDS011;18669;53.356;-1.464;2023-06-01T05:14:59;16.67;;;6.93;;
29838;SDS011;18669;53.356;-1.464;2023-06-01T05:17:45;12.73;;;6.40;;
29838;SDS011;18669;53.356;-1.464;2023-06-01T05:20:29;11.13;;;6.75;;
29838;SDS011;18669;53.356;-1.464;2023-06-01T05:23:14;13.65;;;7.13;;
29838;SDS011;18669;53.356;-1.464;2023-06-01T05:25:59;13.98;;;7.05;;
29838;SDS011;18669;53.356;-1.464;2023-06-01T05:28:46;17.00;;;7.93;;
29838;SDS011;18669;53.356;-1.464;2023-06-01T05:31:31;20.42;;;9.00;;
29838;SDS011;18669;53.356;-1.464;2023-06-01T05:34:16;11.00;;;7.10;;
29838;SDS011;18669;53.356;-1.464;2023-06-01T05:37:01;13.20;;;6.32;;
29838;SDS011;18669;53.356;-1.464;2023-06-01T05:39:46;14.88;;;6.70;;
29838;SDS011;18669;53.356;-1.464;2023-06-01T05:42:31;12.73;;;6.20;;
29838;SDS011;18669;53.356;-1.464;2023-06-01T05:45:16;11.25;;;6.45;;
29838;SDS011;18669;53.356;-1.464;2023-06-01T05:48:02;9.73;;;6.50;;
29838;SDS011;18669;53.356;-1.464;2023-06-01T05:50:47;10.60;;;6.30;;
29838;SDS011;18669;53.356;-1.464;2023-06-01T05:53:32;11.15;;;6.60;;
29838;SDS011;18669;53.356;-1.464;2023-06-01T05:56:17;12.98;;;6.47;;
29838;SDS011;18669;53.356;-1.464;2023-06-01T05:59:02;9.82;;;5.47;;
29838;SDS011;18669;53.356;-1.464;2023-06-01T06:01:48;12.77;;;6.30;;
29838;SDS011;18669;53.356;-1.464;2023-06-01T06:04:33;11.00;;;6.05;;
29838;SDS011;18669;53.356;-1.464;2023-06-01T06:07:17;11.23;;;6.03;;
29838;SDS011;18669;53.356;-1.464;2023-06-01T06:10:03;9.85;;;6.10;;
29838;SDS011;18669;53.356;-1.464;2023-06-01T06:12:48;13.55;;;5.97;;
29838;SDS011;18669;53.356;-1.464;2023-06-01T06:15:33;13.40;;;6.68;;
29838;SDS011;18669;53.356;-1.464;2023-06-01T06:18:18;17.65;;;10.52;;
29838;SDS011;18669;53.356;-1.464;2023-06-01T06:21:04;14.32;;;6.70;;
29838;SDS011;18669;53.356;-1.464;2023-06-01T06:23:49;10.52;;;5.55;;
29838;SDS011;18669;53.356;-1.464;2023-06-01T06:26:34;11.00;;;6.70;;
29838;SDS011;18669;53.356;-1.464;2023-06-01T06:29:19;11.93;;;6.65;;
29838;SDS011;18669;53.356;-1.464;2023-06-01T06:32:04;16.98;;;7.13;;
29838;SDS011;18669;53.356;-1.464;2023-06-01T06:34:50;9.38;;;5.55;;
29838;SDS011;18669;53.356;-1.464;2023-06-01T06:37:34;11.38;;;6.30;;
29838;SDS011;18669;53.356;-1.464;2023-06-01T06:40:19;14.75;;;6.63;;
29838;SDS011;18669;53.356;-1.464;2023-06-01T06:43:04;9.32;;;6.68;;
29838;SDS011;18669;53.356;-1.464;2023-06-01T06:45:49;9.23;;;6.55;;
29838;SDS011;18669;53.356;-1.464;2023-06-01T06:48:34;13.00;;;7.10;;
29838;SDS011;18669;53.356;-1.464;2023-06-01T06:51:19;10.82;;;7.03;;
29838;SDS011;18669;53.356;-1.464;2023-06-01T06:54:03;10.13;;;6.80;;
29838;SDS011;18669;53.356;-1.464;2023-06-01T06:56:49;13.50;;;7.18;;
29838;SDS011;18669;53.356;-1.464;2023-06-01T06:59:34;14.95;;;7.28;;
29838;SDS011;18669;53.356;-1.464;2023-06-01T07:02:20;13.35;;;6.78;;
29838;SDS011;18669;53.356;-1.464;2023-06-01T07:05:05;7.82;;;5.70;;
29838;SDS011;18669;53.356;-1.464;2023-06-01T07:07:50;14.20;;;6.10;;
29838;SDS011;18669;53.356;-1.464;2023-06-01T07:10:35;9.95;;;5.70;;
29838;SDS011;18669;53.356;-1.464;2023-06-01T07:13:20;10.82;;;6.63;;
29838;SDS011;18669;53.356;-1.464;2023-06-01T07:16:07;10.02;;;6.00;;
29838;SDS011;18669;53.356;-1.464;2023-06-01T07:18:53;8.57;;;5.77;;
29838;SDS011;18669;53.356;-1.464;2023-06-01T07:21:38;10.88;;;5.90;;
29838;SDS011;18669;53.356;-1.464;2023-06-01T07:24:23;10.55;;;5.43;;
29838;SDS011;18669;53.356;-1.464;2023-06-01T07:27:10;12.25;;;6.13;;
29838;SDS011;18669;53.356;-1.464;2023-06-01T07:29:55;13.98;;;7.43;;
29838;SDS011;18669;53.356;-1.464;2023-06-01T07:32:40;11.55;;;6.03;;
29838;SDS011;18669;53.356;-1.464;2023-06-01T07:35:25;10.52;;;5.63;;
29838;SDS011;18669;53.356;-1.464;2023-06-01T07:38:10;8.93;;;5.53;;
29838;SDS011;18669;53.356;-1.464;2023-06-01T07:40:55;10.48;;;5.60;;
29838;SDS011;18669;53.356;-1.464;2023-06-01T07:43:40;8.85;;;5.93;;
29838;SDS011;18669;53.356;-1.464;2023-06-01T07:46:25;9.40;;;5.60;;
29838;SDS011;18669;53.356;-1.464;2023-06-01T07:49:10;15.27;;;6.50;;
29838;SDS011;18669;53.356;-1.464;2023-06-01T07:51:57;9.15;;;5.97;;
29838;SDS011;18669;53.356;-1.464;2023-06-01T07:54:43;12.90;;;5.30;;
29838;SDS011;18669;53.356;-1.464;2023-06-01T07:57:28;9.23;;;5.28;;
29838;SDS011;18669;53.356;-1.464;2023-06-01T08:00:12;8.88;;;4.85;;
29838;SDS011;18669;53.356;-1.464;2023-06-01T08:02:59;10.00;;;4.55;;
29838;SDS011;18669;53.356;-1.464;2023-06-01T08:05:50;8.35;;;4.18;;
29838;SDS011;18669;53.356;-1.464;2023-06-01T08:08:35;6.45;;;3.88;;
29838;SDS011;18669;53.356;-1.464;2023-06-01T08:11:21;8.65;;;4.13;;
29838;SDS011;18669;53.356;-1.464;2023-06-01T08:14:07;11.05;;;3.83;;
29838;SDS011;18669;53.356;-1.464;2023-06-01T08:16:53;14.55;;;4.63;;
29838;SDS011;18669;53.356;-1.464;2023-06-01T08:19:38;5.95;;;3.50;;
29838;SDS011;18669;53.356;-1.464;2023-06-01T08:22:24;9.07;;;3.80;;
29838;SDS011;18669;53.356;-1.464;2023-06-01T08:25:09;6.30;;;3.70;;
29838;SDS011;18669;53.356;-1.464;2023-06-01T08:27:54;6.20;;;4.07;;
29838;SDS011;18669;53.356;-1.464;2023-06-01T08:30:39;11.52;;;3.78;;
29838;SDS011;18669;53.356;-1.464;2023-06-01T08:33:24;9.20;;;3.95;;
29838;SDS011;18669;53.356;-1.464;2023-06-01T08:36:08;13.13;;;3.95;;
29838;SDS011;18669;53.356;-1.464;2023-06-01T08:38:54;5.45;;;4.25;;
29838;SDS011;18669;53.356;-1.464;2023-06-01T08:41:40;7.72;;;4.28;;
29838;SDS011;18669;53.356;-1.464;2023-06-01T08:44:38;8.60;;;4.65;;
29838;SDS011;18669;53.356;-1.464;2023-06-01T08:47:24;8.85;;;4.50;;
29838;SDS011;18669;53.356;-1.464;2023-06-01T08:50:10;4.72;;;3.88;;
29838;SDS011;18669;53.356;-1.464;2023-06-01T08:52:56;8.73;;;4.15;;
29838;SDS011;18669;53.356;-1.464;2023-06-01T08:55:50;5.97;;;3.80;;
29838;SDS011;18669;53.356;-1.464;2023-06-01T08:58:39;10.95;;;4.15;;
29838;SDS011;18669;53.356;-1.464;2023-06-01T09:01:25;7.85;;;4.35;;
29838;SDS011;18669;53.356;-1.464;2023-06-01T09:04:10;8.27;;;4.75;;
29838;SDS011;18669;53.356;-1.464;2023-06-01T09:06:57;10.30;;;4.72;;
29838;SDS011;18669;53.356;-1.464;2023-06-01T09:09:42;6.13;;;4.38;;
29838;SDS011;18669;53.356;-1.464;2023-06-01T09:12:28;10.77;;;4.60;;
29838;SDS011;18669;53.356;-1.464;2023-06-01T09:15:15;7.35;;;4.50;;
29838;SDS011;18669;53.356;-1.464;2023-06-01T09:18:05;9.02;;;4.65;;
29838;SDS011;18669;53.356;-1.464;2023-06-01T09:20:52;6.25;;;4.25;;
29838;SDS011;18669;53.356;-1.464;2023-06-01T09:23:38;6.25;;;3.90;;
29838;SDS011;18669;53.356;-1.464;2023-06-01T09:26:26;7.93;;;4.30;;
29838;SDS011;18669;53.356;-1.464;2023-06-01T09:29:11;10.07;;;4.25;;
29838;SDS011;18669;53.356;-1.464;2023-06-01T09:31:56;9.73;;;4.53;;
29838;SDS011;18669;53.356;-1.464;2023-06-01T09:34:43;9.00;;;5.25;;
29838;SDS011;18669;53.356;-1.464;2023-06-01T09:37:30;10.57;;;4.43;;
29838;SDS011;18669;53.356;-1.464;2023-06-01T09:40:18;8.18;;;4.43;;
29838;SDS011;18669;53.356;-1.464;2023-06-01T09:43:18;6.32;;;3.92;;
29838;SDS011;18669;53.356;-1.464;2023-06-01T09:46:05;8.52;;;3.92;;
29838;SDS011;18669;53.356;-1.464;2023-06-01T09:49:04;5.25;;;3.50;;
29838;SDS011;18669;53.356;-1.464;2023-06-01T09:51:51;10.70;;;3.55;;
29838;SDS011;18669;53.356;-1.464;2023-06-01T09:57:29;8.20;;;3.40;;
29838;SDS011;18669;53.356;-1.464;2023-06-01T10:00:21;6.35;;;3.22;;
29838;SDS011;18669;53.356;-1.464;2023-06-01T10:03:07;8.13;;;2.85;;
29838;SDS011;18669;53.356;-1.464;2023-06-01T10:05:53;5.43;;;2.85;;
29838;SDS011;18669;53.356;-1.464;2023-06-01T10:08:39;5.22;;;2.40;;
29838;SDS011;18669;53.356;-1.464;2023-06-01T10:11:27;4.82;;;2.78;;
29838;SDS011;18669;53.356;-1.464;2023-06-01T10:14:12;6.55;;;2.03;;
29838;SDS011;18669;53.356;-1.464;2023-06-01T10:16:58;2.38;;;2.00;;
29838;SDS011;18669;53.356;-1.464;2023-06-01T10:19:43;4.10;;;1.88;;
29838;SDS011;18669;53.356;-1.464;2023-06-01T10:22:29;2.78;;;2.13;;
29838;SDS011;18669;53.356;-1.464;2023-06-01T10:25:14;7.10;;;2.58;;
29838;SDS011;18669;53.356;-1.464;2023-06-01T10:28:04;2.15;;;1.88;;
29838;SDS011;18669;53.356;-1.464;2023-06-01T10:34:15;3.17;;;2.00;;
29838;SDS011;18669;53.356;-1.464;2023-06-01T10:39:47;4.10;;;1.73;;
29838;SDS011;18669;53.356;-1.464;2023-06-01T10:42:36;4.15;;;2.30;;
29838;SDS011;18669;53.356;-1.464;2023-06-01T10:48:20;3.78;;;2.28;;
29838;SDS011;18669;53.356;-1.464;2023-06-01T10:51:37;3.22;;;2.08;;
29838;SDS011;18669;53.356;-1.464;2023-06-01T10:54:28;2.83;;;1.77;;
29838;SDS011;18669;53.356;-1.464;2023-06-01T10:57:20;1.85;;;1.48;;
29838;SDS011;18669;53.356;-1.464;2023-06-01T11:00:23;2.72;;;1.65;;
29838;SDS011;18669;53.356;-1.464;2023-06-01T11:03:10;8.13;;;2.30;;
29838;SDS011;18669;53.356;-1.464;2023-06-01T11:05:56;3.15;;;1.95;;
29838;SDS011;18669;53.356;-1.464;2023-06-01T11:14:41;6.90;;;2.78;;
29838;SDS011;18669;53.356;-1.464;2023-06-01T11:17:56;3.35;;;2.42;;
29838;SDS011;18669;53.356;-1.464;2023-06-01T11:20:41;7.45;;;2.80;;
29838;SDS011;18669;53.356;-1.464;2023-06-01T11:23:26;3.50;;;2.65;;
29838;SDS011;18669;53.356;-1.464;2023-06-01T11:26:13;8.30;;;2.88;;
29838;SDS011;18669;53.356;-1.464;2023-06-01T11:32:12;3.28;;;2.88;;
29838;SDS011;18669;53.356;-1.464;2023-06-01T11:34:59;7.03;;;2.78;;
29838;SDS011;18669;53.356;-1.464;2023-06-01T11:37:44;5.75;;;2.95;;
29838;SDS011;18669;53.356;-1.464;2023-06-01T11:40:31;5.82;;;2.70;;
29838;SDS011;18669;53.356;-1.464;2023-06-01T11:43:26;4.43;;;3.38;;
29838;SDS011;18669;53.356;-1.464;2023-06-01T11:46:11;4.72;;;2.50;;
29838;SDS011;18669;53.356;-1.464;2023-06-01T11:49:06;10.30;;;5.63;;
29838;SDS011;18669;53.356;-1.464;2023-06-01T11:51:51;4.47;;;2.63;;
29838;SDS011;18669;53.356;-1.464;2023-06-01T11:54:37;6.53;;;2.20;;
29838;SDS011;18669;53.356;-1.464;2023-06-01T11:57:21;4.03;;;2.03;;
29838;SDS011;18669;53.356;-1.464;2023-06-01T12:00:09;2.35;;;1.90;;
29838;SDS011;18669;53.356;-1.464;2023-06-01T12:03:06;4.32;;;2.20;;
29838;SDS011;18669;53.356;-1.464;2023-06-01T12:05:52;2.67;;;2.10;;
29838;SDS011;18669;53.356;-1.464;2023-06-01T12:08:37;4.43;;;2.88;;
29838;SDS011;18669;53.356;-1.464;2023-06-01T12:11:23;7.00;;;2.78;;
29838;SDS011;18669;53.356;-1.464;2023-06-01T12:14:12;3.17;;;2.88;;
29838;SDS011;18669;53.356;-1.464;2023-06-01T12:16:59;8.00;;;3.47;;
29838;SDS011;18669;53.356;-1.464;2023-06-01T12:19:48;3.05;;;2.75;;
29838;SDS011;18669;53.356;-1.464;2023-06-01T12:22:34;5.25;;;3.25;;
29838;SDS011;18669;53.356;-1.464;2023-06-01T12:25:18;3.97;;;2.50;;
29838;SDS011;18669;53.356;-1.464;2023-06-01T12:28:04;4.95;;;2.90;;
29838;SDS011;18669;53.356;-1.464;2023-06-01T12:33:56;4.03;;;3.08;;
29838;SDS011;18669;53.356;-1.464;2023-06-01T12:36:41;8.63;;;5.47;;
29838;SDS011;18669;53.356;-1.464;2023-06-01T12:39:32;11.10;;;6.03;;
29838;SDS011;18669;53.356;-1.464;2023-06-01T12:42:37;8.68;;;5.00;;
29838;SDS011;18669;53.356;-1.464;2023-06-01T12:45:23;7.93;;;3.92;;
29838;SDS011;18669;53.356;-1.464;2023-06-01T12:48:08;5.05;;;3.08;;
29838;SDS011;18669;53.356;-1.464;2023-06-01T12:50:53;7.50;;;3.65;;
29838;SDS011;18669;53.356;-1.464;2023-06-01T12:53:38;4.68;;;3.13;;
29838;SDS011;18669;53.356;-1.464;2023-06-01T12:56:23;5.43;;;3.10;;
29838;SDS011;18669;53.356;-1.464;2023-06-01T12:59:08;7.80;;;3.15;;
29838;SDS011;18669;53.356;-1.464;2023-06-01T13:01:53;7.25;;;2.85;;
29838;SDS011;18669;53.356;-1.464;2023-06-01T13:04:38;3.25;;;2.92;;
29838;SDS011;18669;53.356;-1.464;2023-06-01T13:07:23;7.13;;;2.70;;
29838;SDS011;18669;53.356;-1.464;2023-06-01T13:10:10;5.38;;;2.90;;
29838;SDS011;18669;53.356;-1.464;2023-06-01T13:12:54;5.03;;;3.33;;
29838;SDS011;18669;53.356;-1.464;2023-06-01T13:15:42;5.78;;;3.42;;
29838;SDS011;18669;53.356;-1.464;2023-06-01T13:18:28;7.50;;;3.42;;
29838;SDS011;18669;53.356;-1.464;2023-06-01T13:21:13;4.97;;;3.20;;
29838;SDS011;18669;53.356;-1.464;2023-06-01T13:23:59;5.40;;;3.13;;
29838;SDS011;18669;53.356;-1.464;2023-06-01T13:26:44;4.00;;;2.75;;
29838;SDS011;18669;53.356;-1.464;2023-06-01T13:29:28;9.90;;;3.30;;
29838;SDS011;18669;53.356;-1.464;2023-06-01T13:32:13;10.07;;;3.17;;
29838;SDS011;18669;53.356;-1.464;2023-06-01T13:34:58;6.03;;;2.85;;
29838;SDS011;18669;53.356;-1.464;2023-06-01T13:37:43;3.58;;;2.60;;
29838;SDS011;18669;53.356;-1.464;2023-06-01T13:40:28;5.30;;;2.38;;
29838;SDS011;18669;53.356;-1.464;2023-06-01T13:43:13;6.47;;;2.40;;
29838;SDS011;18669;53.356;-1.464;2023-06-01T13:45:58;3.50;;;2.30;;
29838;SDS011;18669;53.356;-1.464;2023-06-01T13:48:43;3.75;;;2.20;;
29838;SDS011;18669;53.356;-1.464;2023-06-01T13:51:27;9.50;;;2.63;;
29838;SDS011;18669;53.356;-1.464;2023-06-01T13:54:12;5.15;;;2.80;;
29838;SDS011;18669;53.356;-1.464;2023-06-01T13:56:59;7.18;;;2.25;;
29838;SDS011;18669;53.356;-1.464;2023-06-01T13:59:44;8.63;;;2.17;;
29838;SDS011;18669;53.356;-1.464;2023-06-01T14:02:29;3.97;;;2.42;;
29838;SDS011;18669;53.356;-1.464;2023-06-01T14:05:14;3.67;;;2.38;;
29838;SDS011;18669;53.356;-1.464;2023-06-01T14:07:59;6.07;;;2.97;;
29838;SDS011;18669;53.356;-1.464;2023-06-01T14:10:46;3.55;;;2.10;;
29838;SDS011;18669;53.356;-1.464;2023-06-01T14:13:31;4.53;;;1.98;;
29838;SDS011;18669;53.356;-1.464;2023-06-01T14:16:16;6.28;;;2.03;;
29838;SDS011;18669;53.356;-1.464;2023-06-01T14:19:01;8.30;;;2.20;;
29838;SDS011;18669;53.356;-1.464;2023-06-01T14:21:47;4.43;;;2.00;;
29838;SDS011;18669;53.356;-1.464;2023-06-01T14:24:32;6.90;;;1.92;;
29838;SDS011;18669;53.356;-1.464;2023-06-01T14:27:17;4.15;;;1.83;;
29838;SDS011;18669;53.356;-1.464;2023-06-01T14:30:02;1.90;;;1.48;;
29838;SDS011;18669;53.356;-1.464;2023-06-01T14:32:48;3.45;;;1.70;;
29838;SDS011;18669;53.356;-1.464;2023-06-01T14:35:33;2.22;;;1.60;;
29838;SDS011;18669;53.356;-1.464;2023-06-01T14:38:18;2.40;;;1.60;;
29838;SDS011;18669;53.356;-1.464;2023-06-01T14:41:03;7.13;;;1.77;;
29838;SDS011;18669;53.356;-1.464;2023-06-01T14:43:48;1.92;;;1.60;;
29838;SDS011;18669;53.356;-1.464;2023-06-01T14:46:33;5.97;;;1.92;;
29838;SDS011;18669;53.356;-1.464;2023-06-01T14:49:18;8.15;;;2.40;;
29838;SDS011;18669;53.356;-1.464;2023-06-01T14:52:03;5.13;;;1.70;;
29838;SDS011;18669;53.356;-1.464;2023-06-01T14:54:47;3.17;;;1.67;;
29838;SDS011;18669;53.356;-1.464;2023-06-01T14:57:33;4.28;;;1.40;;
29838;SDS011;18669;53.356;-1.464;2023-06-01T15:00:18;1.50;;;1.35;;
29838;SDS011;18669;53.356;-1.464;2023-06-01T15:03:03;4.30;;;1.50;;
29838;SDS011;18669;53.356;-1.464;2023-06-01T15:05:48;4.25;;;1.30;;
29838;SDS011;18669;53.356;-1.464;2023-06-01T15:08:34;7.97;;;2.05;;
29838;SDS011;18669;53.356;-1.464;2023-06-01T15:11:19;7.57;;;2.10;;
29838;SDS011;18669;53.356;-1.464;2023-06-01T15:14:05;4.07;;;1.85;;
29838;SDS011;18669;53.356;-1.464;2023-06-01T15:16:50;7.00;;;2.30;;
29838;SDS011;18669;53.356;-1.464;2023-06-01T15:19:35;4.03;;;1.85;;
29838;SDS011;18669;53.356;-1.464;2023-06-01T15:22:20;5.13;;;1.50;;
29838;SDS011;18669;53.356;-1.464;2023-06-01T15:25:05;3.35;;;1.45;;
29838;SDS011;18669;53.356;-1.464;2023-06-01T15:27:50;4.78;;;1.67;;
29838;SDS011;18669;53.356;-1.464;2023-06-01T15:30:35;3.90;;;1.80;;
29838;SDS011;18669;53.356;-1.464;2023-06-01T15:33:21;3.27;;;1.63;;
29838;SDS011;18669;53.356;-1.464;2023-06-01T15:36:06;5.43;;;2.20;;
29838;SDS011;18669;53.356;-1.464;2023-06-01T15:38:51;4.20;;;1.80;;
29838;SDS011;18669;53.356;-1.464;2023-06-01T15:41:36;6.40;;;2.30;;
29838;SDS011;18669;53.356;-1.464;2023-06-01T15:44:20;8.20;;;2.10;;
29838;SDS011;18669;53.356;-1.464;2023-06-01T15:47:05;16.13;;;2.38;;
29838;SDS011;18669;53.356;-1.464;2023-06-01T15:49:50;8.77;;;2.60;;
29838;SDS011;18669;53.356;-1.464;2023-06-01T15:52:35;12.30;;;2.00;;
29838;SDS011;18669;53.356;-1.464;2023-06-01T15:55:20;7.65;;;2.05;;
29838;SDS011;18669;53.356;-1.464;2023-06-01T15:58:05;12.95;;;2.20;;
29838;SDS011;18669;53.356;-1.464;2023-06-01T16:00:50;7.05;;;2.33;;
29838;SDS011;18669;53.356;-1.464;2023-06-01T16:03:35;11.25;;;2.65;;
29838;SDS011;18669;53.356;-1.464;2023-06-01T16:06:19;3.97;;;1.98;;
29838;SDS011;18669;53.356;-1.464;2023-06-01T16:09:05;5.53;;;2.00;;
29838;SDS011;18669;53.356;-1.464;2023-06-01T16:11:49;6.50;;;1.90;;
29838;SDS011;18669;53.356;-1.464;2023-06-01T16:14:34;5.30;;;1.98;;
29838;SDS011;18669;53.356;-1.464;2023-06-01T16:17:19;6.05;;;2.17;;
29838;SDS011;18669;53.356;-1.464;2023-06-01T16:20:05;5.80;;;2.13;;
29838;SDS011;18669;53.356;-1.464;2023-06-01T16:22:50;7.13;;;3.10;;
29838;SDS011;18669;53.356;-1.464;2023-06-01T16:25:35;5.88;;;2.13;;
29838;SDS011;18669;53.356;-1.464;2023-06-01T16:28:20;5.07;;;2.35;;
29838;SDS011;18669;53.356;-1.464;2023-06-01T16:31:05;9.18;;;2.22;;
29838;SDS011;18669;53.356;-1.464;2023-06-01T16:33:50;8.00;;;2.40;;
29838;SDS011;18669;53.356;-1.464;2023-06-01T16:36:35;8.52;;;2.60;;
29838;SDS011;18669;53.356;-1.464;2023-06-01T16:39:21;6.10;;;2.47;;
29838;SDS011;18669;53.356;-1.464;2023-06-01T16:42:06;3.88;;;2.13;;
29838;SDS011;18669;53.356;-1.464;2023-06-01T16:44:50;9.43;;;3.22;;
29838;SDS011;18669;53.356;-1.464;2023-06-01T16:47:35;7.85;;;2.72;;
29838;SDS011;18669;53.356;-1.464;2023-06-01T16:50:20;10.02;;;3.22;;
29838;SDS011;18669;53.356;-1.464;2023-06-01T16:53:05;12.07;;;2.85;;
29838;SDS011;18669;53.356;-1.464;2023-06-01T16:55:50;6.85;;;2.85;;